Pagrindinis puslapis
METAR-TAF:

METAR-TAF

Oro uostai :

Kukuta, Kolumbija

platuma: 07-56N, ilguma: 072-31W, Aukštis: 250 m

Dabartinis oras

Ataskaita buvo paskelbta 55 minutes, ne 11:00 UTC
Vėjas 14 kt iš Pietų
Temperatūra 29°C
Drėgmė 55%
Slėgis 1013 hPa
Matomumas 10 km arba daugiau
Išsisklaidę debesys ne aukštis 2200 ft
Išsisklaidę debesys ne aukštis 2000 ft
Išsisklaidę debesys ne aukštis 8000 ft

METAR: SKCC 151100Z 18014KT 9999 SCT022 SCT020 SCT080 29/19 A2990

Laikas: 06:55 (11:55 UTC)

Prognozė

Ataskaita buvo paskelbta 1 valandą ir 25 minutes, ne 10:30 UTC
Prognozė galioja nuo 15 metu 12 UTC su 16 metu 12 UTC
Vėjas 10 kt iš Pietų
Matomumas 10 km arba daugiau
Išsisklaidę debesys ne aukštis 2300 ft
Išsisklaidę debesys ne aukštis 9000 ft
Laikinai
nuo 15 metu 14 UTC su 15 metu 20 UTC
Vėjas 25 kt iš Pietryčių

TAF: SKCC 151030Z 1512/1612 18010KT 9999 SCT023 SCT090 TEMPO 1514/1520 14025KT TX36/1518Z TN26/1611Z

Orai ataskaitas ir orų prognozės (METAR, TAF).

turimą stotys yra geltonos ir raudonos taškus žemėlapyje.

Perkelti pele per norėdami pamatyti stoties vardą.

Tada spustelėkite, norėdami matyti oro stebėjimo ir prognozės.

Norėdami pakeisti žemėlapį: spustelėkite ant žalios mygtukų su juodo kryžiaus žemyn,; žalią mygtuką su brūkšneliu, jei norite nutolinti; arba žalių rodyklių gretimoms žemėlapius.


METAR-TAF: